sensor_id;sensor_type;location;lat;lon;timestamp;P1;durP1;ratioP1;P2;durP2;ratioP2
31402;SDS011;18039;52.188;21.024;2023-06-01T00:00:47;8.25;;;3.10;;
31402;SDS011;18039;52.188;21.024;2023-06-01T00:03:34;7.97;;;3.10;;
31402;SDS011;18039;52.188;21.024;2023-06-01T00:06:05;4.90;;;2.53;;
31402;SDS011;18039;52.188;21.024;2023-06-01T00:08:33;5.20;;;2.60;;
31402;SDS011;18039;52.188;21.024;2023-06-01T00:11:00;6.25;;;3.17;;
31402;SDS011;18039;52.188;21.024;2023-06-01T00:13:27;7.20;;;2.78;;
31402;SDS011;18039;52.188;21.024;2023-06-01T00:15:55;5.18;;;2.65;;
31402;SDS011;18039;52.188;21.024;2023-06-01T00:18:23;4.45;;;2.60;;
31402;SDS011;18039;52.188;21.024;2023-06-01T00:20:54;8.95;;;2.97;;
31402;SDS011;18039;52.188;21.024;2023-06-01T00:23:21;5.18;;;2.50;;
31402;SDS011;18039;52.188;21.024;2023-06-01T00:25:48;9.70;;;2.50;;
31402;SDS011;18039;52.188;21.024;2023-06-01T00:28:15;6.97;;;2.90;;
31402;SDS011;18039;52.188;21.024;2023-06-01T00:30:43;7.65;;;2.78;;
31402;SDS011;18039;52.188;21.024;2023-06-01T00:33:10;5.68;;;2.50;;
31402;SDS011;18039;52.188;21.024;2023-06-01T00:35:37;11.90;;;4.15;;
31402;SDS011;18039;52.188;21.024;2023-06-01T00:38:04;7.05;;;3.08;;
31402;SDS011;18039;52.188;21.024;2023-06-01T00:40:33;5.70;;;2.78;;
31402;SDS011;18039;52.188;21.024;2023-06-01T00:43:01;5.97;;;2.35;;
31402;SDS011;18039;52.188;21.024;2023-06-01T00:45:28;4.97;;;2.58;;
31402;SDS011;18039;52.188;21.024;2023-06-01T00:47:56;6.32;;;2.58;;
31402;SDS011;18039;52.188;21.024;2023-06-01T00:50:24;5.93;;;3.05;;
31402;SDS011;18039;52.188;21.024;2023-06-01T00:52:52;8.00;;;2.88;;
31402;SDS011;18039;52.188;21.024;2023-06-01T00:55:21;5.22;;;2.38;;
31402;SDS011;18039;52.188;21.024;2023-06-01T00:57:48;5.20;;;2.70;;
31402;SDS011;18039;52.188;21.024;2023-06-01T01:00:18;4.05;;;2.50;;
31402;SDS011;18039;52.188;21.024;2023-06-01T01:02:45;6.93;;;3.03;;
31402;SDS011;18039;52.188;21.024;2023-06-01T01:05:16;6.70;;;2.38;;
31402;SDS011;18039;52.188;21.024;2023-06-01T01:08:07;5.07;;;2.38;;
31402;SDS011;18039;52.188;21.024;2023-06-01T01:10:59;7.35;;;2.47;;
31402;SDS011;18039;52.188;21.024;2023-06-01T01:13:37;6.03;;;2.43;;
31402;SDS011;18039;52.188;21.024;2023-06-01T01:18:57;4.20;;;2.25;;
31402;SDS011;18039;52.188;21.024;2023-06-01T01:21:35;5.32;;;2.47;;
31402;SDS011;18039;52.188;21.024;2023-06-01T01:29:23;4.50;;;2.08;;
31402;SDS011;18039;52.188;21.024;2023-06-01T01:31:53;6.20;;;2.40;;
31402;SDS011;18039;52.188;21.024;2023-06-01T01:34:22;7.18;;;2.17;;
31402;SDS011;18039;52.188;21.024;2023-06-01T01:36:54;5.80;;;2.30;;
31402;SDS011;18039;52.188;21.024;2023-06-01T01:39:22;5.03;;;2.40;;
31402;SDS011;18039;52.188;21.024;2023-06-01T01:41:50;6.10;;;2.20;;
31402;SDS011;18039;52.188;21.024;2023-06-01T01:44:17;5.60;;;2.00;;
31402;SDS011;18039;52.188;21.024;2023-06-01T01:49:29;4.30;;;2.00;;
31402;SDS011;18039;52.188;21.024;2023-06-01T01:54:36;7.60;;;2.35;;
31402;SDS011;18039;52.188;21.024;2023-06-01T01:57:07;5.25;;;2.17;;
31402;SDS011;18039;52.188;21.024;2023-06-01T01:59:35;3.38;;;2.10;;
31402;SDS011;18039;52.188;21.024;2023-06-01T02:02:03;4.93;;;1.98;;
31402;SDS011;18039;52.188;21.024;2023-06-01T02:04:30;7.88;;;2.13;;
31402;SDS011;18039;52.188;21.024;2023-06-01T02:06:59;7.65;;;2.30;;
31402;SDS011;18039;52.188;21.024;2023-06-01T02:09:29;3.55;;;2.15;;
31402;SDS011;18039;52.188;21.024;2023-06-01T02:11:57;7.22;;;2.38;;
31402;SDS011;18039;52.188;21.024;2023-06-01T02:14:24;4.03;;;2.10;;
31402;SDS011;18039;52.188;21.024;2023-06-01T02:16:51;4.25;;;2.00;;
31402;SDS011;18039;52.188;21.024;2023-06-01T02:19:20;4.38;;;2.08;;
31402;SDS011;18039;52.188;21.024;2023-06-01T02:21:48;4.63;;;1.80;;
31402;SDS011;18039;52.188;21.024;2023-06-01T02:24:16;3.08;;;1.77;;
31402;SDS011;18039;52.188;21.024;2023-06-01T02:26:45;8.02;;;2.15;;
31402;SDS011;18039;52.188;21.024;2023-06-01T02:29:13;5.53;;;2.03;;
31402;SDS011;18039;52.188;21.024;2023-06-01T02:31:40;3.85;;;1.98;;
31402;SDS011;18039;52.188;21.024;2023-06-01T02:34:09;6.10;;;2.20;;
31402;SDS011;18039;52.188;21.024;2023-06-01T02:36:37;6.32;;;2.05;;
31402;SDS011;18039;52.188;21.024;2023-06-01T02:39:04;3.70;;;2.00;;
31402;SDS011;18039;52.188;21.024;2023-06-01T02:41:33;5.78;;;2.55;;
31402;SDS011;18039;52.188;21.024;2023-06-01T02:44:00;4.93;;;2.08;;
31402;SDS011;18039;52.188;21.024;2023-06-01T02:46:28;4.03;;;2.10;;
31402;SDS011;18039;52.188;21.024;2023-06-01T02:48:55;5.47;;;2.00;;
31402;SDS011;18039;52.188;21.024;2023-06-01T02:51:23;5.72;;;2.17;;
31402;SDS011;18039;52.188;21.024;2023-06-01T02:53:59;4.25;;;2.17;;
31402;SDS011;18039;52.188;21.024;2023-06-01T02:56:27;6.63;;;2.60;;
31402;SDS011;18039;52.188;21.024;2023-06-01T02:59:14;6.40;;;2.40;;
31402;SDS011;18039;52.188;21.024;2023-06-01T03:01:48;3.42;;;1.90;;
31402;SDS011;18039;52.188;21.024;2023-06-01T03:04:16;3.42;;;2.03;;
31402;SDS011;18039;52.188;21.024;2023-06-01T03:06:44;3.90;;;2.28;;
31402;SDS011;18039;52.188;21.024;2023-06-01T03:09:21;6.15;;;2.38;;
31402;SDS011;18039;52.188;21.024;2023-06-01T03:12:11;5.72;;;2.00;;
31402;SDS011;18039;52.188;21.024;2023-06-01T03:14:39;5.95;;;2.55;;
31402;SDS011;18039;52.188;21.024;2023-06-01T03:17:07;6.95;;;2.10;;
31402;SDS011;18039;52.188;21.024;2023-06-01T03:19:35;9.82;;;2.58;;
31402;SDS011;18039;52.188;21.024;2023-06-01T03:22:11;4.70;;;2.33;;
31402;SDS011;18039;52.188;21.024;2023-06-01T03:24:38;4.78;;;2.20;;
31402;SDS011;18039;52.188;21.024;2023-06-01T03:27:09;8.30;;;2.92;;
31402;SDS011;18039;52.188;21.024;2023-06-01T03:29:40;4.85;;;2.38;;
31402;SDS011;18039;52.188;21.024;2023-06-01T03:32:07;9.05;;;2.88;;
31402;SDS011;18039;52.188;21.024;2023-06-01T03:34:35;4.18;;;2.10;;
31402;SDS011;18039;52.188;21.024;2023-06-01T03:37:03;6.43;;;2.53;;
31402;SDS011;18039;52.188;21.024;2023-06-01T03:39:31;6.35;;;2.67;;
31402;SDS011;18039;52.188;21.024;2023-06-01T03:42:05;7.15;;;2.55;;
31402;SDS011;18039;52.188;21.024;2023-06-01T03:44:34;7.53;;;2.67;;
31402;SDS011;18039;52.188;21.024;2023-06-01T03:47:02;8.85;;;2.28;;
31402;SDS011;18039;52.188;21.024;2023-06-01T03:49:30;7.18;;;2.22;;
31402;SDS011;18039;52.188;21.024;2023-06-01T03:51:57;6.85;;;2.60;;
31402;SDS011;18039;52.188;21.024;2023-06-01T03:54:24;6.13;;;2.03;;
31402;SDS011;18039;52.188;21.024;2023-06-01T03:56:52;7.95;;;2.22;;
31402;SDS011;18039;52.188;21.024;2023-06-01T03:59:19;7.63;;;2.55;;
31402;SDS011;18039;52.188;21.024;2023-06-01T04:01:48;8.18;;;3.15;;
31402;SDS011;18039;52.188;21.024;2023-06-01T04:04:16;6.80;;;2.75;;
31402;SDS011;18039;52.188;21.024;2023-06-01T04:06:48;7.65;;;2.47;;
31402;SDS011;18039;52.188;21.024;2023-06-01T04:09:16;6.43;;;2.42;;
31402;SDS011;18039;52.188;21.024;2023-06-01T04:11:46;9.85;;;3.00;;
31402;SDS011;18039;52.188;21.024;2023-06-01T04:14:13;4.63;;;2.65;;
31402;SDS011;18039;52.188;21.024;2023-06-01T04:16:41;7.65;;;3.47;;
31402;SDS011;18039;52.188;21.024;2023-06-01T04:19:08;5.05;;;2.75;;
31402;SDS011;18039;52.188;21.024;2023-06-01T04:21:37;8.95;;;2.97;;
31402;SDS011;18039;52.188;21.024;2023-06-01T04:24:04;8.43;;;2.80;;
31402;SDS011;18039;52.188;21.024;2023-06-01T04:26:33;7.40;;;2.70;;
31402;SDS011;18039;52.188;21.024;2023-06-01T04:29:00;8.57;;;2.95;;
31402;SDS011;18039;52.188;21.024;2023-06-01T04:31:28;10.27;;;2.92;;
31402;SDS011;18039;52.188;21.024;2023-06-01T04:33:55;5.82;;;3.25;;
31402;SDS011;18039;52.188;21.024;2023-06-01T04:36:24;11.15;;;3.22;;
31402;SDS011;18039;52.188;21.024;2023-06-01T04:38:55;9.05;;;3.08;;
31402;SDS011;18039;52.188;21.024;2023-06-01T04:41:24;7.07;;;3.03;;
31402;SDS011;18039;52.188;21.024;2023-06-01T04:43:51;9.57;;;2.90;;
31402;SDS011;18039;52.188;21.024;2023-06-01T04:46:21;8.18;;;3.20;;
31402;SDS011;18039;52.188;21.024;2023-06-01T04:48:53;10.80;;;3.42;;
31402;SDS011;18039;52.188;21.024;2023-06-01T04:51:25;6.50;;;3.13;;
31402;SDS011;18039;52.188;21.024;2023-06-01T04:53:53;12.15;;;3.45;;
31402;SDS011;18039;52.188;21.024;2023-06-01T04:56:22;7.88;;;2.90;;
31402;SDS011;18039;52.188;21.024;2023-06-01T04:58:54;9.55;;;3.35;;
31402;SDS011;18039;52.188;21.024;2023-06-01T05:01:23;11.35;;;3.20;;
31402;SDS011;18039;52.188;21.024;2023-06-01T05:03:52;7.40;;;3.17;;
31402;SDS011;18039;52.188;21.024;2023-06-01T05:06:23;7.68;;;2.83;;
31402;SDS011;18039;52.188;21.024;2023-06-01T05:08:52;12.35;;;3.55;;
31402;SDS011;18039;52.188;21.024;2023-06-01T05:11:21;7.50;;;3.08;;
31402;SDS011;18039;52.188;21.024;2023-06-01T05:13:49;13.77;;;3.80;;
31402;SDS011;18039;52.188;21.024;2023-06-01T05:16:19;7.10;;;3.22;;
31402;SDS011;18039;52.188;21.024;2023-06-01T05:18:47;7.90;;;3.53;;
31402;SDS011;18039;52.188;21.024;2023-06-01T05:21:15;9.43;;;3.65;;
31402;SDS011;18039;52.188;21.024;2023-06-01T05:23:42;9.93;;;3.67;;
31402;SDS011;18039;52.188;21.024;2023-06-01T05:26:11;9.80;;;3.55;;
31402;SDS011;18039;52.188;21.024;2023-06-01T05:28:38;9.60;;;3.40;;
31402;SDS011;18039;52.188;21.024;2023-06-01T05:31:09;5.63;;;2.83;;
31402;SDS011;18039;52.188;21.024;2023-06-01T05:33:51;11.55;;;3.75;;
31402;SDS011;18039;52.188;21.024;2023-06-01T05:36:19;9.50;;;2.90;;
31402;SDS011;18039;52.188;21.024;2023-06-01T05:38:46;9.32;;;2.97;;
31402;SDS011;18039;52.188;21.024;2023-06-01T05:41:14;9.48;;;3.38;;
31402;SDS011;18039;52.188;21.024;2023-06-01T05:43:41;15.73;;;3.47;;
31402;SDS011;18039;52.188;21.024;2023-06-01T05:46:09;8.85;;;2.83;;
31402;SDS011;18039;52.188;21.024;2023-06-01T05:48:36;9.52;;;3.90;;
31402;SDS011;18039;52.188;21.024;2023-06-01T05:51:09;8.02;;;3.25;;
31402;SDS011;18039;52.188;21.024;2023-06-01T05:53:36;10.30;;;3.40;;
31402;SDS011;18039;52.188;21.024;2023-06-01T05:56:04;11.32;;;3.25;;
31402;SDS011;18039;52.188;21.024;2023-06-01T05:58:32;8.45;;;3.78;;
31402;SDS011;18039;52.188;21.024;2023-06-01T06:01:00;7.30;;;3.00;;
31402;SDS011;18039;52.188;21.024;2023-06-01T06:03:29;18.70;;;4.70;;
31402;SDS011;18039;52.188;21.024;2023-06-01T06:05:57;7.53;;;3.20;;
31402;SDS011;18039;52.188;21.024;2023-06-01T06:08:24;11.57;;;3.85;;
31402;SDS011;18039;52.188;21.024;2023-06-01T06:10:52;8.00;;;3.20;;
31402;SDS011;18039;52.188;21.024;2023-06-01T06:13:19;7.43;;;3.40;;
31402;SDS011;18039;52.188;21.024;2023-06-01T06:15:47;11.60;;;3.85;;
31402;SDS011;18039;52.188;21.024;2023-06-01T06:18:14;13.00;;;3.50;;
31402;SDS011;18039;52.188;21.024;2023-06-01T06:20:42;13.85;;;3.53;;
31402;SDS011;18039;52.188;21.024;2023-06-01T06:23:10;6.80;;;3.33;;
31402;SDS011;18039;52.188;21.024;2023-06-01T06:25:38;9.60;;;3.60;;
31402;SDS011;18039;52.188;21.024;2023-06-01T06:28:07;7.43;;;3.40;;
31402;SDS011;18039;52.188;21.024;2023-06-01T06:30:35;8.57;;;3.53;;
31402;SDS011;18039;52.188;21.024;2023-06-01T06:33:02;9.32;;;3.13;;
31402;SDS011;18039;52.188;21.024;2023-06-01T06:35:30;17.77;;;3.80;;
31402;SDS011;18039;52.188;21.024;2023-06-01T06:37:57;6.60;;;3.60;;
31402;SDS011;18039;52.188;21.024;2023-06-01T06:40:25;10.85;;;3.30;;
31402;SDS011;18039;52.188;21.024;2023-06-01T06:42:52;14.82;;;3.53;;
31402;SDS011;18039;52.188;21.024;2023-06-01T06:45:20;10.82;;;3.20;;
31402;SDS011;18039;52.188;21.024;2023-06-01T06:47:47;6.07;;;3.03;;
31402;SDS011;18039;52.188;21.024;2023-06-01T06:50:15;10.10;;;3.42;;
31402;SDS011;18039;52.188;21.024;2023-06-01T06:52:43;11.73;;;3.35;;
31402;SDS011;18039;52.188;21.024;2023-06-01T06:55:10;7.72;;;3.00;;
31402;SDS011;18039;52.188;21.024;2023-06-01T06:57:38;9.15;;;4.18;;
31402;SDS011;18039;52.188;21.024;2023-06-01T07:00:08;8.82;;;3.10;;
31402;SDS011;18039;52.188;21.024;2023-06-01T07:02:42;14.52;;;3.38;;
31402;SDS011;18039;52.188;21.024;2023-06-01T07:05:12;11.73;;;3.15;;
31402;SDS011;18039;52.188;21.024;2023-06-01T07:07:40;7.30;;;3.40;;
31402;SDS011;18039;52.188;21.024;2023-06-01T07:10:08;11.50;;;3.40;;
31402;SDS011;18039;52.188;21.024;2023-06-01T07:12:35;11.65;;;3.40;;
31402;SDS011;18039;52.188;21.024;2023-06-01T07:15:03;8.80;;;2.97;;
31402;SDS011;18039;52.188;21.024;2023-06-01T07:17:31;6.68;;;2.65;;
31402;SDS011;18039;52.188;21.024;2023-06-01T07:20:00;8.88;;;2.90;;
31402;SDS011;18039;52.188;21.024;2023-06-01T07:22:31;10.50;;;2.47;;
31402;SDS011;18039;52.188;21.024;2023-06-01T07:24:59;10.45;;;2.60;;
31402;SDS011;18039;52.188;21.024;2023-06-01T07:27:27;10.95;;;3.28;;
31402;SDS011;18039;52.188;21.024;2023-06-01T07:29:56;7.10;;;2.65;;
31402;SDS011;18039;52.188;21.024;2023-06-01T07:32:23;10.55;;;2.67;;
31402;SDS011;18039;52.188;21.024;2023-06-01T07:34:52;4.13;;;2.30;;
31402;SDS011;18039;52.188;21.024;2023-06-01T07:37:19;6.13;;;2.28;;
31402;SDS011;18039;52.188;21.024;2023-06-01T07:39:51;6.53;;;2.60;;
31402;SDS011;18039;52.188;21.024;2023-06-01T07:42:19;9.80;;;2.50;;
31402;SDS011;18039;52.188;21.024;2023-06-01T07:44:47;8.15;;;2.60;;
31402;SDS011;18039;52.188;21.024;2023-06-01T07:47:15;4.20;;;2.53;;
31402;SDS011;18039;52.188;21.024;2023-06-01T07:49:43;7.82;;;2.47;;
31402;SDS011;18039;52.188;21.024;2023-06-01T07:52:10;3.80;;;2.10;;
31402;SDS011;18039;52.188;21.024;2023-06-01T07:54:38;6.68;;;2.63;;
31402;SDS011;18039;52.188;21.024;2023-06-01T07:57:06;5.50;;;2.33;;
31402;SDS011;18039;52.188;21.024;2023-06-01T07:59:34;6.47;;;2.42;;
31402;SDS011;18039;52.188;21.024;2023-06-01T08:02:01;4.65;;;2.60;;
31402;SDS011;18039;52.188;21.024;2023-06-01T08:04:30;6.03;;;2.30;;
31402;SDS011;18039;52.188;21.024;2023-06-01T08:07:00;10.48;;;2.70;;
31402;SDS011;18039;52.188;21.024;2023-06-01T08:09:31;4.18;;;2.10;;
31402;SDS011;18039;52.188;21.024;2023-06-01T08:11:59;4.90;;;2.10;;
31402;SDS011;18039;52.188;21.024;2023-06-01T08:14:26;4.28;;;1.83;;
31402;SDS011;18039;52.188;21.024;2023-06-01T08:16:54;21.60;;;3.05;;
31402;SDS011;18039;52.188;21.024;2023-06-01T08:19:23;4.18;;;2.00;;
31402;SDS011;18039;52.188;21.024;2023-06-01T08:21:50;4.68;;;2.05;;
31402;SDS011;18039;52.188;21.024;2023-06-01T08:24:17;7.45;;;1.73;;
31402;SDS011;18039;52.188;21.024;2023-06-01T08:26:45;4.30;;;2.15;;
31402;SDS011;18039;52.188;21.024;2023-06-01T08:29:12;28.60;;;3.00;;
31402;SDS011;18039;52.188;21.024;2023-06-01T08:31:41;5.32;;;2.03;;
31402;SDS011;18039;52.188;21.024;2023-06-01T08:34:08;5.25;;;2.10;;
31402;SDS011;18039;52.188;21.024;2023-06-01T08:36:35;8.30;;;2.35;;
31402;SDS011;18039;52.188;21.024;2023-06-01T08:39:19;6.07;;;2.10;;
31402;SDS011;18039;52.188;21.024;2023-06-01T08:41:53;8.68;;;1.80;;
31402;SDS011;18039;52.188;21.024;2023-06-01T08:44:33;9.50;;;2.30;;
31402;SDS011;18039;52.188;21.024;2023-06-01T08:47:03;6.53;;;2.42;;
31402;SDS011;18039;52.188;21.024;2023-06-01T08:49:32;5.00;;;2.13;;
31402;SDS011;18039;52.188;21.024;2023-06-01T08:52:06;4.32;;;2.10;;
31402;SDS011;18039;52.188;21.024;2023-06-01T08:54:38;9.77;;;2.50;;
31402;SDS011;18039;52.188;21.024;2023-06-01T08:57:06;9.20;;;2.95;;
31402;SDS011;18039;52.188;21.024;2023-06-01T08:59:36;6.57;;;2.38;;
31402;SDS011;18039;52.188;21.024;2023-06-01T09:02:04;6.55;;;2.60;;
31402;SDS011;18039;52.188;21.024;2023-06-01T09:04:33;9.00;;;2.67;;
31402;SDS011;18039;52.188;21.024;2023-06-01T09:07:08;9.10;;;2.38;;
31402;SDS011;18039;52.188;21.024;2023-06-01T09:09:36;4.93;;;2.17;;
31402;SDS011;18039;52.188;21.024;2023-06-01T09:17:36;5.93;;;2.45;;
31402;SDS011;18039;52.188;21.024;2023-06-01T09:20:04;8.43;;;2.63;;
31402;SDS011;18039;52.188;21.024;2023-06-01T09:22:43;8.23;;;2.80;;
31402;SDS011;18039;52.188;21.024;2023-06-01T09:25:13;8.73;;;2.50;;
31402;SDS011;18039;52.188;21.024;2023-06-01T09:27:42;9.43;;;2.53;;
31402;SDS011;18039;52.188;21.024;2023-06-01T09:30:17;4.43;;;2.25;;
31402;SDS011;18039;52.188;21.024;2023-06-01T09:32:46;6.03;;;2.40;;
31402;SDS011;18039;52.188;21.024;2023-06-01T09:35:37;7.30;;;2.30;;
31402;SDS011;18039;52.188;21.024;2023-06-01T09:38:06;10.15;;;2.60;;
31402;SDS011;18039;52.188;21.024;2023-06-01T09:40:34;9.13;;;2.60;;
31402;SDS011;18039;52.188;21.024;2023-06-01T09:43:02;5.13;;;2.42;;
31402;SDS011;18039;52.188;21.024;2023-06-01T09:45:30;10.43;;;2.80;;
31402;SDS011;18039;52.188;21.024;2023-06-01T09:48:15;9.50;;;2.42;;
31402;SDS011;18039;52.188;21.024;2023-06-01T09:50:46;6.75;;;2.88;;
31402;SDS011;18039;52.188;21.024;2023-06-01T09:53:13;7.00;;;2.53;;
31402;SDS011;18039;52.188;21.024;2023-06-01T09:56:00;6.85;;;2.70;;
31402;SDS011;18039;52.188;21.024;2023-06-01T09:58:29;7.40;;;2.70;;
31402;SDS011;18039;52.188;21.024;2023-06-01T10:00:56;8.52;;;2.80;;
31402;SDS011;18039;52.188;21.024;2023-06-01T10:03:28;13.80;;;2.03;;
31402;SDS011;18039;52.188;21.024;2023-06-01T10:05:56;6.03;;;2.17;;
31402;SDS011;18039;52.188;21.024;2023-06-01T10:08:24;8.23;;;2.70;;
31402;SDS011;18039;52.188;21.024;2023-06-01T10:10:53;8.77;;;2.50;;
31402;SDS011;18039;52.188;21.024;2023-06-01T10:13:20;13.43;;;2.90;;
31402;SDS011;18039;52.188;21.024;2023-06-01T10:18:20;10.38;;;2.45;;
31402;SDS011;18039;52.188;21.024;2023-06-01T10:20:48;5.53;;;2.53;;
31402;SDS011;18039;52.188;21.024;2023-06-01T10:23:17;5.43;;;2.10;;
31402;SDS011;18039;52.188;21.024;2023-06-01T10:25:56;4.20;;;2.25;;
31402;SDS011;18039;52.188;21.024;2023-06-01T10:28:26;7.15;;;2.05;;
31402;SDS011;18039;52.188;21.024;2023-06-01T10:34:05;3.15;;;2.00;;
31402;SDS011;18039;52.188;21.024;2023-06-01T10:39:24;4.38;;;2.10;;
31402;SDS011;18039;52.188;21.024;2023-06-01T10:41:53;5.18;;;2.17;;
31402;SDS011;18039;52.188;21.024;2023-06-01T10:57:40;4.88;;;2.00;;
31402;SDS011;18039;52.188;21.024;2023-06-01T11:00:12;5.25;;;1.85;;
31402;SDS011;18039;52.188;21.024;2023-06-01T11:03:01;4.28;;;2.15;;
31402;SDS011;18039;52.188;21.024;2023-06-01T11:05:41;5.07;;;2.20;;
31402;SDS011;18039;52.188;21.024;2023-06-01T11:13:24;5.38;;;2.00;;
31402;SDS011;18039;52.188;21.024;2023-06-01T11:21:32;5.95;;;2.67;;
31402;SDS011;18039;52.188;21.024;2023-06-01T11:24:10;5.15;;;2.20;;
31402;SDS011;18039;52.188;21.024;2023-06-01T11:31:38;4.53;;;1.80;;
31402;SDS011;18039;52.188;21.024;2023-06-01T11:34:15;6.30;;;2.30;;
31402;SDS011;18039;52.188;21.024;2023-06-01T11:36:48;6.90;;;2.15;;
31402;SDS011;18039;52.188;21.024;2023-06-01T11:39:24;5.72;;;2.63;;
31402;SDS011;18039;52.188;21.024;2023-06-01T11:44:38;5.15;;;2.22;;
31402;SDS011;18039;52.188;21.024;2023-06-01T11:47:07;6.95;;;2.13;;
31402;SDS011;18039;52.188;21.024;2023-06-01T11:49:48;4.65;;;2.50;;
31402;SDS011;18039;52.188;21.024;2023-06-01T11:52:18;6.90;;;2.10;;
31402;SDS011;18039;52.188;21.024;2023-06-01T11:54:46;7.20;;;2.38;;
31402;SDS011;18039;52.188;21.024;2023-06-01T11:57:14;7.63;;;2.63;;
31402;SDS011;18039;52.188;21.024;2023-06-01T11:59:44;10.77;;;2.00;;
31402;SDS011;18039;52.188;21.024;2023-06-01T12:02:17;9.90;;;2.50;;
31402;SDS011;18039;52.188;21.024;2023-06-01T12:04:57;8.40;;;2.60;;
31402;SDS011;18039;52.188;21.024;2023-06-01T12:07:26;5.70;;;2.40;;
31402;SDS011;18039;52.188;21.024;2023-06-01T12:09:54;5.70;;;2.40;;
31402;SDS011;18039;52.188;21.024;2023-06-01T12:12:23;10.80;;;2.47;;
31402;SDS011;18039;52.188;21.024;2023-06-01T12:14:52;6.38;;;2.42;;
31402;SDS011;18039;52.188;21.024;2023-06-01T12:17:20;4.13;;;2.08;;
31402;SDS011;18039;52.188;21.024;2023-06-01T12:19:48;6.70;;;2.10;;
31402;SDS011;18039;52.188;21.024;2023-06-01T12:22:16;6.40;;;2.47;;
31402;SDS011;18039;52.188;21.024;2023-06-01T12:24:45;6.32;;;2.17;;
31402;SDS011;18039;52.188;21.024;2023-06-01T12:27:15;15.20;;;3.95;;
31402;SDS011;18039;52.188;21.024;2023-06-01T12:29:46;8.98;;;2.22;;
31402;SDS011;18039;52.188;21.024;2023-06-01T12:32:14;6.70;;;2.40;;
31402;SDS011;18039;52.188;21.024;2023-06-01T12:35:02;7.55;;;2.25;;
31402;SDS011;18039;52.188;21.024;2023-06-01T12:37:30;11.57;;;2.85;;
31402;SDS011;18039;52.188;21.024;2023-06-01T12:39:58;10.95;;;2.50;;
31402;SDS011;18039;52.188;21.024;2023-06-01T12:42:36;7.43;;;2.15;;
31402;SDS011;18039;52.188;21.024;2023-06-01T12:45:06;6.85;;;2.80;;
31402;SDS011;18039;52.188;21.024;2023-06-01T12:47:38;4.07;;;2.08;;
31402;SDS011;18039;52.188;21.024;2023-06-01T12:50:08;4.38;;;2.20;;
31402;SDS011;18039;52.188;21.024;2023-06-01T12:52:38;8.48;;;2.00;;
31402;SDS011;18039;52.188;21.024;2023-06-01T12:55:07;10.10;;;2.40;;
31402;SDS011;18039;52.188;21.024;2023-06-01T12:57:36;5.95;;;2.17;;
31402;SDS011;18039;52.188;21.024;2023-06-01T13:00:25;11.18;;;2.30;;
31402;SDS011;18039;52.188;21.024;2023-06-01T13:03:05;5.90;;;2.38;;
31402;SDS011;18039;52.188;21.024;2023-06-01T13:05:34;5.97;;;2.50;;
31402;SDS011;18039;52.188;21.024;2023-06-01T13:08:01;8.95;;;2.22;;
31402;SDS011;18039;52.188;21.024;2023-06-01T13:10:29;5.53;;;2.30;;
31402;SDS011;18039;52.188;21.024;2023-06-01T13:12:56;4.60;;;2.28;;
31402;SDS011;18039;52.188;21.024;2023-06-01T13:15:24;8.18;;;2.25;;
31402;SDS011;18039;52.188;21.024;2023-06-01T13:17:51;6.55;;;1.90;;
31402;SDS011;18039;52.188;21.024;2023-06-01T13:20:21;4.75;;;1.95;;
31402;SDS011;18039;52.188;21.024;2023-06-01T13:22:48;7.60;;;2.45;;
31402;SDS011;18039;52.188;21.024;2023-06-01T13:25:16;10.98;;;2.28;;
31402;SDS011;18039;52.188;21.024;2023-06-01T13:27:45;5.82;;;1.83;;
31402;SDS011;18039;52.188;21.024;2023-06-01T13:30:13;5.45;;;2.17;;
31402;SDS011;18039;52.188;21.024;2023-06-01T13:32:41;5.50;;;2.25;;
31402;SDS011;18039;52.188;21.024;2023-06-01T13:35:08;4.50;;;2.03;;
31402;SDS011;18039;52.188;21.024;2023-06-01T13:37:38;6.57;;;2.30;;
31402;SDS011;18039;52.188;21.024;2023-06-01T13:40:06;5.47;;;1.98;;
31402;SDS011;18039;52.188;21.024;2023-06-01T13:42:33;5.72;;;1.90;;
31402;SDS011;18039;52.188;21.024;2023-06-01T13:45:01;10.10;;;2.55;;
31402;SDS011;18039;52.188;21.024;2023-06-01T13:47:28;6.18;;;2.30;;
31402;SDS011;18039;52.188;21.024;2023-06-01T13:49:56;13.23;;;2.58;;
31402;SDS011;18039;52.188;21.024;2023-06-01T13:52:24;11.88;;;2.33;;
31402;SDS011;18039;52.188;21.024;2023-06-01T13:54:52;7.70;;;2.35;;
31402;SDS011;18039;52.188;21.024;2023-06-01T13:57:19;4.05;;;1.80;;
31402;SDS011;18039;52.188;21.024;2023-06-01T13:59:47;5.03;;;2.45;;
31402;SDS011;18039;52.188;21.024;2023-06-01T14:02:14;4.60;;;2.00;;
31402;SDS011;18039;52.188;21.024;2023-06-01T14:04:42;5.88;;;2.40;;
31402;SDS011;18039;52.188;21.024;2023-06-01T14:07:10;4.25;;;2.40;;
31402;SDS011;18039;52.188;21.024;2023-06-01T14:09:37;8.93;;;2.47;;
31402;SDS011;18039;52.188;21.024;2023-06-01T14:12:05;7.50;;;2.55;;
31402;SDS011;18039;52.188;21.024;2023-06-01T14:14:34;6.75;;;2.00;;
31402;SDS011;18039;52.188;21.024;2023-06-01T14:17:01;5.53;;;1.70;;
31402;SDS011;18039;52.188;21.024;2023-06-01T14:19:29;7.70;;;2.08;;
31402;SDS011;18039;52.188;21.024;2023-06-01T14:21:56;6.63;;;2.10;;
31402;SDS011;18039;52.188;21.024;2023-06-01T14:24:24;14.48;;;3.08;;
31402;SDS011;18039;52.188;21.024;2023-06-01T14:26:51;4.95;;;2.17;;
31402;SDS011;18039;52.188;21.024;2023-06-01T14:29:18;7.40;;;2.10;;
31402;SDS011;18039;52.188;21.024;2023-06-01T14:31:46;5.68;;;2.20;;
31402;SDS011;18039;52.188;21.024;2023-06-01T14:34:14;4.43;;;1.90;;
31402;SDS011;18039;52.188;21.024;2023-06-01T14:36:41;5.22;;;1.90;;
31402;SDS011;18039;52.188;21.024;2023-06-01T14:39:14;7.70;;;1.90;;
31402;SDS011;18039;52.188;21.024;2023-06-01T14:41:42;7.90;;;2.05;;
31402;SDS011;18039;52.188;21.024;2023-06-01T14:44:12;11.32;;;2.10;;
31402;SDS011;18039;52.188;21.024;2023-06-01T14:46:40;6.13;;;2.13;;
31402;SDS011;18039;52.188;21.024;2023-06-01T14:49:10;9.25;;;1.85;;
31402;SDS011;18039;52.188;21.024;2023-06-01T14:51:37;4.07;;;2.17;;
31402;SDS011;18039;52.188;21.024;2023-06-01T14:54:05;4.68;;;1.67;;
31402;SDS011;18039;52.188;21.024;2023-06-01T14:56:33;4.15;;;1.90;;
31402;SDS011;18039;52.188;21.024;2023-06-01T14:59:01;5.10;;;1.90;;
31402;SDS011;18039;52.188;21.024;2023-06-01T15:01:29;5.53;;;1.90;;
31402;SDS011;18039;52.188;21.024;2023-06-01T15:03:57;5.40;;;1.77;;
31402;SDS011;18039;52.188;21.024;2023-06-01T15:06:24;4.10;;;1.88;;
31402;SDS011;18039;52.188;21.024;2023-06-01T15:08:52;5.90;;;2.20;;
31402;SDS011;18039;52.188;21.024;2023-06-01T15:11:19;3.72;;;2.13;;
31402;SDS011;18039;52.188;21.024;2023-06-01T15:13:48;6.80;;;2.28;;
31402;SDS011;18039;52.188;21.024;2023-06-01T15:16:16;8.98;;;2.30;;
31402;SDS011;18039;52.188;21.024;2023-06-01T15:18:44;6.05;;;2.20;;
31402;SDS011;18039;52.188;21.024;2023-06-01T15:21:11;6.07;;;1.90;;
31402;SDS011;18039;52.188;21.024;2023-06-01T15:23:39;10.23;;;1.83;;
31402;SDS011;18039;52.188;21.024;2023-06-01T15:26:07;7.35;;;2.25;;
31402;SDS011;18039;52.188;21.024;2023-06-01T15:28:35;4.05;;;2.00;;
31402;SDS011;18039;52.188;21.024;2023-06-01T15:31:02;6.07;;;1.98;;
31402;SDS011;18039;52.188;21.024;2023-06-01T15:33:29;5.93;;;2.35;;
31402;SDS011;18039;52.188;21.024;2023-06-01T15:35:57;6.47;;;2.13;;
31402;SDS011;18039;52.188;21.024;2023-06-01T15:38:24;4.30;;;2.15;;
31402;SDS011;18039;52.188;21.024;2023-06-01T15:40:52;6.07;;;2.10;;
31402;SDS011;18039;52.188;21.024;2023-06-01T15:43:19;9.77;;;2.22;;
31402;SDS011;18039;52.188;21.024;2023-06-01T15:45:47;10.73;;;2.05;;